createdAt,value
2023-04-30T00:01:12.610Z,101736.66
2023-04-30T00:03:42.406Z,101734.19
2023-04-30T00:06:12.192Z,101727.00
2023-04-30T00:08:44.479Z,101742.53
2023-04-30T00:11:14.114Z,101729.06
2023-04-30T00:13:44.324Z,101733.66
2023-04-30T00:16:13.985Z,101744.88
2023-04-30T00:18:43.671Z,101734.47
2023-04-30T00:21:13.397Z,101739.13
2023-04-30T00:23:45.768Z,101731.78
2023-04-30T00:26:15.710Z,101746.50
2023-04-30T00:28:45.379Z,101745.31
2023-04-30T00:31:15.045Z,101754.06
2023-04-30T00:33:44.821Z,101747.03
2023-04-30T00:36:14.466Z,101754.38
2023-04-30T00:38:46.695Z,101754.44
2023-04-30T00:41:16.482Z,101761.22
2023-04-30T00:43:47.234Z,101759.44
2023-04-30T00:46:16.939Z,101762.13
2023-04-30T00:48:46.691Z,101766.31
2023-04-30T00:51:16.845Z,101764.00
2023-04-30T00:53:49.688Z,101769.78
2023-04-30T00:56:19.440Z,101769.00
2023-04-30T00:58:50.026Z,101779.56
2023-04-30T01:03:55.443Z,101783.25
2023-04-30T01:06:25.328Z,101787.63
2023-04-30T01:08:57.977Z,101791.59
2023-04-30T01:11:35.774Z,101787.09
2023-04-30T01:14:13.924Z,101798.69
2023-04-30T01:16:50.083Z,101795.91
2023-04-30T01:19:32.224Z,101797.50
2023-04-30T01:22:03.751Z,101806.72
2023-04-30T01:25:08.832Z,101807.34
2023-04-30T01:28:04.721Z,101805.22
2023-04-30T01:30:35.213Z,101803.06
2023-04-30T01:33:04.990Z,101809.06
2023-04-30T01:35:53.464Z,101804.16
2023-04-30T01:38:31.137Z,101807.69
2023-04-30T01:41:11.609Z,101813.47
2023-04-30T01:43:52.780Z,101812.41
2023-04-30T01:46:28.172Z,101821.13
2023-04-30T01:49:07.055Z,101822.22
2023-04-30T01:51:42.904Z,101815.19
2023-04-30T01:54:20.054Z,101818.72
2023-04-30T01:56:56.699Z,101821.41
2023-04-30T01:59:29.392Z,101827.50
2023-04-30T02:01:59.113Z,101821.91
2023-04-30T02:04:28.465Z,101831.63
2023-04-30T02:06:58.917Z,101833.72
2023-04-30T02:09:28.434Z,101830.44
2023-04-30T02:11:58.064Z,101824.69
2023-04-30T02:14:30.627Z,101827.81
2023-04-30T02:17:00.127Z,101830.75
2023-04-30T02:19:29.473Z,101839.19
2023-04-30T02:21:58.807Z,101841.50
2023-04-30T02:24:28.146Z,101838.81
2023-04-30T02:26:57.449Z,101835.91
2023-04-30T02:29:26.895Z,101838.69
2023-04-30T02:32:01.483Z,101840.69
2023-04-30T02:34:30.944Z,101836.56
2023-04-30T02:37:00.251Z,101842.53
2023-04-30T02:39:29.550Z,101845.47
2023-04-30T02:41:58.873Z,101835.53
2023-04-30T02:44:28.556Z,101835.13
2023-04-30T02:47:00.513Z,101833.72
2023-04-30T02:49:29.980Z,101834.19
2023-04-30T02:51:59.325Z,101844.09
2023-04-30T02:54:28.686Z,101835.84
2023-04-30T02:56:59.224Z,101846.19
2023-04-30T02:59:28.624Z,101841.81
2023-04-30T03:02:00.515Z,101841.41
2023-04-30T03:04:29.974Z,101848.63
2023-04-30T03:07:00.572Z,101838.31
2023-04-30T03:09:29.952Z,101834.81
2023-04-30T03:11:59.271Z,101847.91
2023-04-30T03:14:28.666Z,101847.84
2023-04-30T03:17:00.536Z,101858.59
2023-04-30T03:19:29.928Z,101855.09
2023-04-30T03:21:59.338Z,101857.78
2023-04-30T03:24:28.658Z,101861.91
2023-04-30T03:26:57.976Z,101860.47
2023-04-30T03:29:27.442Z,101861.53
2023-04-30T03:31:56.869Z,101860.28
2023-04-30T03:34:28.764Z,101860.06
2023-04-30T03:36:58.197Z,101861.72
2023-04-30T03:39:27.683Z,101859.88
2023-04-30T03:41:57.001Z,101860.69
2023-04-30T03:44:26.372Z,101870.63
2023-04-30T03:46:55.702Z,101870.38
2023-04-30T03:49:25.016Z,101862.34
2023-04-30T03:51:56.929Z,101864.00
2023-04-30T03:54:26.228Z,101864.63
2023-04-30T03:56:56.365Z,101863.38
2023-04-30T03:59:25.839Z,101869.38
2023-04-30T04:01:55.906Z,101874.53
2023-04-30T04:04:25.302Z,101874.13
2023-04-30T04:06:57.466Z,101877.63
2023-04-30T04:09:27.393Z,101869.38
2023-04-30T04:11:56.770Z,101871.25
2023-04-30T04:14:26.205Z,101883.00
2023-04-30T04:16:55.570Z,101889.00
2023-04-30T04:19:24.875Z,101888.38
2023-04-30T04:21:57.768Z,101887.53
2023-04-30T04:24:27.553Z,101884.25
2023-04-30T04:26:57.051Z,101880.13
2023-04-30T04:29:26.580Z,101884.44
2023-04-30T04:31:55.931Z,101894.69
2023-04-30T04:34:25.562Z,101900.06
2023-04-30T04:36:58.380Z,101901.34
2023-04-30T04:39:27.833Z,101897.03
2023-04-30T04:41:58.287Z,101902.34
2023-04-30T04:44:27.719Z,101902.75
2023-04-30T04:46:58.098Z,101913.53
2023-04-30T04:49:27.532Z,101911.63
2023-04-30T04:51:59.738Z,101914.94
2023-04-30T04:54:29.134Z,101916.00
2023-04-30T04:56:58.477Z,101924.41
2023-04-30T04:59:27.875Z,101926.69
2023-04-30T05:01:57.440Z,101925.84
2023-04-30T05:04:28.077Z,101937.88
2023-04-30T05:06:59.949Z,101937.00
2023-04-30T05:09:29.426Z,101934.09
2023-04-30T05:11:58.733Z,101943.63
2023-04-30T05:14:28.031Z,101940.28
2023-04-30T05:16:57.378Z,101931.66
2023-04-30T05:19:26.877Z,101948.78
2023-04-30T05:21:56.285Z,101959.50
2023-04-30T05:24:28.217Z,101947.31
2023-04-30T05:26:57.536Z,101952.44
2023-04-30T05:29:26.888Z,101952.25
2023-04-30T05:31:56.280Z,101955.34
2023-04-30T05:34:25.815Z,101956.81
2023-04-30T05:36:55.861Z,101958.03
2023-04-30T05:39:27.777Z,101959.53
2023-04-30T05:41:57.084Z,101962.78
2023-04-30T05:44:26.453Z,101973.78
2023-04-30T05:46:55.807Z,101976.19
2023-04-30T05:49:25.281Z,101975.78
2023-04-30T05:51:54.582Z,101983.84
2023-04-30T05:54:23.897Z,101983.28
2023-04-30T05:56:55.916Z,101978.75
2023-04-30T05:59:26.071Z,101979.97
2023-04-30T06:01:55.688Z,101981.00
2023-04-30T06:04:25.058Z,101988.03
2023-04-30T06:06:54.576Z,101985.97
2023-04-30T06:09:23.956Z,101985.28
2023-04-30T06:11:56.017Z,101987.94
2023-04-30T06:14:25.544Z,101981.16
2023-04-30T06:16:55.237Z,101979.88
2023-04-30T06:19:24.616Z,101984.75
2023-04-30T06:21:53.946Z,101983.19
2023-04-30T06:24:23.297Z,101991.34
2023-04-30T06:26:52.695Z,101989.72
2023-04-30T06:29:24.589Z,101991.78
2023-04-30T06:31:54.583Z,101986.88
2023-04-30T06:34:24.064Z,101979.88
2023-04-30T06:36:53.368Z,101985.66
2023-04-30T06:39:22.696Z,101986.41
2023-04-30T06:41:52.251Z,101991.47
2023-04-30T06:44:24.323Z,101994.66
2023-04-30T06:46:53.645Z,101982.47
2023-04-30T06:49:22.954Z,101991.34
2023-04-30T06:51:52.601Z,101994.28
2023-04-30T06:54:22.888Z,101993.94
2023-04-30T06:56:52.348Z,102004.25
2023-04-30T06:59:24.251Z,102000.72
2023-04-30T07:01:53.790Z,102010.34
2023-04-30T07:04:24.642Z,102007.56
2023-04-30T07:06:53.965Z,102005.09
2023-04-30T07:09:23.280Z,102008.47
2023-04-30T07:11:52.656Z,102008.13
2023-04-30T07:14:24.630Z,102007.66
2023-04-30T07:16:53.957Z,102011.63
2023-04-30T07:19:23.771Z,102009.94
2023-04-30T07:21:53.108Z,102015.53
2023-04-30T07:24:22.436Z,102015.38
2023-04-30T07:26:51.773Z,102018.66
2023-04-30T07:29:23.874Z,102020.47
2023-04-30T07:31:53.240Z,102016.19
2023-04-30T07:34:22.638Z,102017.22
2023-04-30T07:36:52.316Z,102013.53
2023-04-30T07:39:21.653Z,102018.50
2023-04-30T07:41:50.972Z,102024.91
2023-04-30T07:44:21.880Z,102021.19
2023-04-30T07:46:53.753Z,102012.94
2023-04-30T07:49:23.127Z,102017.47
2023-04-30T07:51:52.562Z,102017.06
2023-04-30T07:54:22.107Z,102019.31
2023-04-30T07:56:51.537Z,102029.44
2023-04-30T07:59:21.524Z,102029.44
2023-04-30T08:01:53.534Z,102022.81
2023-04-30T08:04:22.950Z,102015.56
2023-04-30T08:06:52.416Z,102021.75
2023-04-30T08:09:21.758Z,102019.47
2023-04-30T08:11:51.105Z,102024.00
2023-04-30T08:14:20.489Z,102020.88
2023-04-30T08:16:52.935Z,102022.16
2023-04-30T08:19:22.327Z,102028.66
2023-04-30T08:21:51.702Z,102029.00
2023-04-30T08:24:21.005Z,102026.59
2023-04-30T08:26:50.917Z,102030.63
2023-04-30T08:29:20.810Z,102027.91
2023-04-30T08:31:52.790Z,102029.22
2023-04-30T08:34:22.122Z,102026.50
2023-04-30T08:36:51.654Z,102027.00
2023-04-30T08:39:21.016Z,102025.41
2023-04-30T08:41:57.910Z,102027.16
2023-04-30T08:44:29.870Z,102026.81
2023-04-30T08:47:02.869Z,102029.31
2023-04-30T08:49:33.376Z,102027.44
2023-04-30T08:52:03.153Z,102017.28
2023-04-30T08:54:34.262Z,102017.03
2023-04-30T08:57:03.919Z,102019.75
2023-04-30T08:59:33.531Z,102016.97
2023-04-30T09:02:05.674Z,102015.34
2023-04-30T09:04:35.029Z,102014.19
2023-04-30T09:07:05.574Z,102029.16
2023-04-30T09:09:41.495Z,102036.34
2023-04-30T09:12:19.392Z,102031.44
2023-04-30T09:15:05.268Z,102020.34
2023-04-30T09:17:38.057Z,102026.00
2023-04-30T09:20:11.760Z,102027.19
2023-04-30T09:22:42.740Z,102026.34
2023-04-30T09:25:12.898Z,102025.25
2023-04-30T09:27:42.210Z,102032.63
2023-04-30T09:30:12.701Z,102029.50
2023-04-30T09:32:57.628Z,102029.06
2023-04-30T09:35:33.540Z,102027.34
2023-04-30T09:38:04.515Z,102029.09
2023-04-30T09:40:42.618Z,102020.50
2023-04-30T09:43:12.238Z,102014.75
2023-04-30T09:45:47.546Z,102004.94
2023-04-30T09:48:23.847Z,102005.66
2023-04-30T09:50:54.616Z,102002.47
2023-04-30T09:53:24.420Z,102001.13
2023-04-30T09:55:56.143Z,102001.75
2023-04-30T09:58:30.939Z,102001.97
2023-04-30T10:01:03.633Z,102000.75
2023-04-30T10:03:35.918Z,101997.13
2023-04-30T10:06:06.161Z,101997.69
2023-04-30T10:08:42.138Z,101993.63
2023-04-30T10:11:16.722Z,101992.59
2023-04-30T10:13:52.017Z,101988.50
2023-04-30T10:16:30.245Z,101977.91
2023-04-30T10:19:06.175Z,101980.75
2023-04-30T10:21:36.824Z,101981.53
2023-04-30T10:24:07.195Z,101988.72
2023-04-30T10:26:36.732Z,101979.78
2023-04-30T10:29:07.973Z,101983.19
2023-04-30T10:31:38.642Z,101980.03
2023-04-30T10:34:25.492Z,101975.91
2023-04-30T10:37:00.015Z,101970.41
2023-04-30T10:39:30.309Z,101971.59
2023-04-30T10:42:07.001Z,101970.16
2023-04-30T10:44:37.279Z,101969.56
2023-04-30T10:47:08.687Z,101955.09
2023-04-30T10:49:43.164Z,101960.47
2023-04-30T10:52:14.053Z,101959.31
2023-04-30T10:54:52.993Z,101955.56
2023-04-30T10:57:25.209Z,101957.63
2023-04-30T10:59:56.945Z,101953.69
2023-04-30T11:02:26.475Z,101944.72
2023-04-30T11:05:35.986Z,101953.56
2023-04-30T11:08:06.082Z,101954.25
2023-04-30T11:10:37.406Z,101951.75
2023-04-30T11:13:10.507Z,101953.94
2023-04-30T11:15:44.206Z,101937.59
2023-04-30T11:18:13.704Z,101936.59
2023-04-30T11:20:53.469Z,101945.44
2023-04-30T11:23:39.386Z,101940.84
2023-04-30T11:26:10.268Z,101939.31
2023-04-30T11:28:40.510Z,101937.19
2023-04-30T11:31:10.056Z,101928.75
2023-04-30T11:33:39.481Z,101923.09
2023-04-30T11:36:12.344Z,101937.03
2023-04-30T11:38:42.217Z,101927.97
2023-04-30T11:41:15.594Z,101918.97
2023-04-30T11:43:44.947Z,101922.16
2023-04-30T11:46:17.546Z,101921.16
2023-04-30T11:48:48.742Z,101932.88
2023-04-30T11:51:24.089Z,101920.78
2023-04-30T11:53:55.157Z,101918.75
2023-04-30T11:56:25.777Z,101913.69
2023-04-30T11:58:56.858Z,101910.97
2023-04-30T12:01:29.995Z,101915.03
2023-04-30T12:04:00.810Z,101902.41
2023-04-30T12:06:33.395Z,101905.66
2023-04-30T12:09:05.023Z,101897.13
2023-04-30T12:11:34.945Z,101893.84
2023-04-30T12:14:07.551Z,101899.16
2023-04-30T12:16:45.688Z,101895.50
2023-04-30T12:19:15.534Z,101894.41
2023-04-30T12:21:49.225Z,101900.53
2023-04-30T12:24:20.141Z,101890.69
2023-04-30T12:26:49.775Z,101890.06
2023-04-30T12:29:20.339Z,101892.88
2023-04-30T12:31:52.569Z,101892.00
2023-04-30T12:34:22.576Z,101889.63
2023-04-30T12:36:54.814Z,101884.38
2023-04-30T12:39:24.135Z,101886.53
2023-04-30T12:41:53.444Z,101895.72
2023-04-30T12:44:24.857Z,101890.00
2023-04-30T12:46:56.821Z,101886.84
2023-04-30T12:49:27.746Z,101880.47
2023-04-30T12:52:07.738Z,101877.78
2023-04-30T12:54:38.750Z,101883.69
2023-04-30T12:57:09.839Z,101872.28
2023-04-30T12:59:41.723Z,101865.34
2023-04-30T13:02:12.991Z,101859.81
2023-04-30T13:04:43.925Z,101868.13
2023-04-30T13:07:15.854Z,101853.72
2023-04-30T13:09:45.529Z,101865.41
2023-04-30T13:12:15.176Z,101848.59
2023-04-30T13:14:44.524Z,101857.72
2023-04-30T13:17:14.021Z,101860.53
2023-04-30T13:19:43.716Z,101853.72
2023-04-30T13:22:13.045Z,101845.75
2023-04-30T13:24:44.992Z,101846.97
2023-04-30T13:27:14.375Z,101840.81
2023-04-30T13:29:43.687Z,101837.56
2023-04-30T13:32:13.593Z,101840.28
2023-04-30T13:34:42.926Z,101838.75
2023-04-30T13:37:12.265Z,101842.09
2023-04-30T13:39:42.187Z,101834.38
2023-04-30T13:42:14.128Z,101839.84
2023-04-30T13:44:45.550Z,101827.75
2023-04-30T13:47:15.312Z,101833.88
2023-04-30T13:49:44.686Z,101835.84
2023-04-30T13:52:14.064Z,101819.13
2023-04-30T13:54:43.605Z,101826.81
2023-04-30T13:57:15.694Z,101824.97
2023-04-30T13:59:45.185Z,101822.94
2023-04-30T14:02:14.544Z,101827.84
2023-04-30T14:04:54.634Z,101815.28
2023-04-30T14:07:32.144Z,101813.66
2023-04-30T14:10:04.574Z,101808.88
2023-04-30T14:12:36.545Z,101812.13
2023-04-30T14:15:06.117Z,101799.69
2023-04-30T14:17:35.758Z,101796.69
2023-04-30T14:20:05.228Z,101798.97
2023-04-30T14:22:38.534Z,101800.03
2023-04-30T14:25:09.707Z,101801.19
2023-04-30T14:27:42.948Z,101804.72
2023-04-30T14:30:13.165Z,101803.91
2023-04-30T14:32:42.556Z,101791.38
2023-04-30T14:35:12.611Z,101785.81
2023-04-30T14:37:41.931Z,101779.50
2023-04-30T14:40:12.661Z,101789.34
2023-04-30T14:42:44.596Z,101781.22
2023-04-30T14:45:14.404Z,101782.03
2023-04-30T14:47:44.000Z,101782.03
2023-04-30T14:50:14.165Z,101776.28
2023-04-30T14:52:43.591Z,101772.59
2023-04-30T14:55:12.921Z,101773.16
2023-04-30T14:57:44.798Z,101766.41
2023-04-30T15:00:16.245Z,101768.22
2023-04-30T15:02:45.622Z,101760.88
2023-04-30T15:05:14.996Z,101767.59
2023-04-30T15:07:44.468Z,101752.44
2023-04-30T15:10:14.485Z,101752.50
2023-04-30T15:12:46.398Z,101756.25
2023-04-30T15:15:18.136Z,101748.31
2023-04-30T15:17:48.116Z,101749.47
2023-04-30T15:20:17.448Z,101747.81
2023-04-30T15:22:46.781Z,101743.66
2023-04-30T15:25:16.397Z,101745.06
2023-04-30T15:27:48.436Z,101737.81
2023-04-30T15:30:17.825Z,101742.66
2023-04-30T15:32:49.468Z,101738.72
2023-04-30T15:35:19.831Z,101736.09
2023-04-30T15:37:49.182Z,101733.97
2023-04-30T15:40:18.515Z,101738.63
2023-04-30T15:42:50.499Z,101732.66
2023-04-30T15:45:20.810Z,101736.78
2023-04-30T15:47:50.257Z,101738.56
2023-04-30T15:50:19.831Z,101726.25
2023-04-30T15:52:49.163Z,101729.78
2023-04-30T15:55:18.764Z,101728.63
2023-04-30T15:57:50.639Z,101729.94
2023-04-30T16:00:20.277Z,101724.22
2023-04-30T16:02:49.865Z,101714.03
2023-04-30T16:05:22.294Z,101715.00
2023-04-30T16:07:51.788Z,101721.44
2023-04-30T16:10:21.706Z,101716.34
2023-04-30T16:12:53.649Z,101710.59
2023-04-30T16:15:24.439Z,101704.69
2023-04-30T16:17:53.810Z,101710.84
2023-04-30T16:20:23.484Z,101703.72
2023-04-30T16:22:52.903Z,101699.25
2023-04-30T16:25:23.557Z,101694.44
2023-04-30T16:27:56.891Z,101699.03
2023-04-30T16:30:26.225Z,101699.78
2023-04-30T16:32:55.625Z,101691.97
2023-04-30T16:35:24.975Z,101689.03
2023-04-30T16:37:54.507Z,101694.44
2023-04-30T16:40:24.217Z,101688.13
2023-04-30T16:42:56.143Z,101686.47
2023-04-30T16:45:26.542Z,101684.66
2023-04-30T16:47:56.559Z,101683.78
2023-04-30T16:50:27.566Z,101683.94
2023-04-30T16:52:57.115Z,101683.53
2023-04-30T16:55:28.605Z,101680.47
2023-04-30T16:58:00.544Z,101674.56
2023-04-30T17:00:29.994Z,101666.38
2023-04-30T17:02:59.522Z,101672.72
2023-04-30T17:05:28.964Z,101666.78
2023-04-30T17:07:58.475Z,101666.63
2023-04-30T17:10:30.082Z,101663.66
2023-04-30T17:13:04.291Z,101668.19
2023-04-30T17:15:33.727Z,101672.94
2023-04-30T17:18:03.225Z,101670.63
2023-04-30T17:20:32.812Z,101677.03
2023-04-30T17:23:02.232Z,101680.97
2023-04-30T17:25:32.122Z,101673.34
2023-04-30T17:28:04.266Z,101677.28
2023-04-30T17:30:33.668Z,101671.78
2023-04-30T17:33:04.582Z,101674.34
2023-04-30T17:35:34.048Z,101674.03
2023-04-30T17:38:03.704Z,101672.94
2023-04-30T17:40:33.476Z,101676.88
2023-04-30T17:43:05.668Z,101681.97
2023-04-30T17:45:35.408Z,101673.44
2023-04-30T17:48:04.817Z,101673.94
2023-04-30T17:50:34.532Z,101672.94
2023-04-30T17:53:03.994Z,101676.81
2023-04-30T17:55:33.325Z,101668.94
2023-04-30T17:58:07.002Z,101668.44
2023-04-30T18:00:37.471Z,101672.19
2023-04-30T18:03:08.326Z,101670.56
2023-04-30T18:05:39.237Z,101675.66
2023-04-30T18:08:09.592Z,101672.13
2023-04-30T18:10:39.781Z,101676.66
2023-04-30T18:13:11.797Z,101673.09
2023-04-30T18:15:41.128Z,101675.09
2023-04-30T18:18:10.479Z,101678.28
2023-04-30T18:20:40.277Z,101667.53
2023-04-30T18:23:10.060Z,101672.09
2023-04-30T18:25:40.369Z,101675.47
2023-04-30T18:28:12.589Z,101671.47
2023-04-30T18:30:41.975Z,101676.66
2023-04-30T18:33:11.607Z,101676.06
2023-04-30T18:35:40.951Z,101678.69
2023-04-30T18:38:10.640Z,101676.72
2023-04-30T18:40:39.954Z,101672.38
2023-04-30T18:43:11.989Z,101667.53
2023-04-30T18:45:41.407Z,101665.88
2023-04-30T18:48:10.941Z,101679.50
2023-04-30T18:50:43.002Z,101679.16
2023-04-30T18:53:12.700Z,101673.25
2023-04-30T18:55:43.455Z,101674.81
2023-04-30T18:58:15.731Z,101668.78
2023-04-30T19:00:45.489Z,101667.69
2023-04-30T19:03:15.238Z,101670.06
2023-04-30T19:05:45.230Z,101675.50
2023-04-30T19:08:15.220Z,101680.31
2023-04-30T19:10:44.540Z,101681.22
2023-04-30T19:13:16.528Z,101677.44
2023-04-30T19:15:46.100Z,101678.50
2023-04-30T19:18:16.473Z,101679.28
2023-04-30T19:20:45.961Z,101674.66
2023-04-30T19:23:15.324Z,101684.59
2023-04-30T19:25:44.649Z,101684.75
2023-04-30T19:28:17.110Z,101688.34
2023-04-30T19:30:46.569Z,101694.59
2023-04-30T19:33:16.042Z,101684.75
2023-04-30T19:35:45.474Z,101681.16
2023-04-30T19:38:14.817Z,101686.47
2023-04-30T19:40:49.148Z,101685.47
2023-04-30T19:43:22.399Z,101686.06
2023-04-30T19:45:53.817Z,101685.31
2023-04-30T19:48:23.887Z,101686.06
2023-04-30T19:50:54.230Z,101686.47
2023-04-30T19:53:25.628Z,101680.81
2023-04-30T19:55:55.379Z,101684.91
2023-04-30T19:58:27.273Z,101683.59
2023-04-30T20:00:56.987Z,101683.59
2023-04-30T20:03:26.625Z,101686.31
2023-04-30T20:05:56.313Z,101682.53
2023-04-30T20:08:25.730Z,101679.34
2023-04-30T20:10:55.027Z,101680.06
2023-04-30T20:13:27.164Z,101683.00
2023-04-30T20:15:56.491Z,101682.53
2023-04-30T20:18:25.908Z,101680.06
2023-04-30T20:20:55.273Z,101676.66
2023-04-30T20:23:24.587Z,101680.72
2023-04-30T20:25:55.146Z,101679.81
2023-04-30T20:28:27.185Z,101682.38
2023-04-30T20:30:56.745Z,101677.78
2023-04-30T20:33:26.479Z,101678.72
2023-04-30T20:35:58.188Z,101685.50
2023-04-30T20:38:27.525Z,101677.06
2023-04-30T20:40:56.815Z,101675.38
2023-04-30T20:43:28.972Z,101679.53
2023-04-30T20:45:59.254Z,101680.44
2023-04-30T20:48:28.860Z,101672.19
2023-04-30T20:50:58.198Z,101677.22
2023-04-30T20:53:27.638Z,101675.22
2023-04-30T20:56:00.548Z,101672.72
2023-04-30T20:58:32.468Z,101665.28
2023-04-30T21:01:03.897Z,101667.50
2023-04-30T21:03:33.370Z,101664.78
2023-04-30T21:06:03.225Z,101664.09
2023-04-30T21:08:32.830Z,101673.25
2023-04-30T21:11:03.338Z,101659.75
2023-04-30T21:13:35.395Z,101669.72
2023-04-30T21:16:05.789Z,101667.84
2023-04-30T21:18:35.237Z,101667.03
2023-04-30T21:21:05.438Z,101664.00
2023-04-30T21:23:35.346Z,101655.66
2023-04-30T21:26:04.950Z,101659.16
2023-04-30T21:28:39.026Z,101661.06
2023-04-30T21:31:09.299Z,101661.13
2023-04-30T21:33:40.069Z,101664.75
2023-04-30T21:36:10.162Z,101663.09
2023-04-30T21:38:39.494Z,101652.78
2023-04-30T21:41:09.250Z,101649.84
2023-04-30T21:43:41.578Z,101649.94
2023-04-30T21:46:11.301Z,101656.47
2023-04-30T21:48:41.286Z,101650.34
2023-04-30T21:51:15.338Z,101653.44
2023-04-30T21:53:44.776Z,101644.13
2023-04-30T21:56:15.010Z,101645.78
2023-04-30T21:58:46.977Z,101642.41
2023-04-30T22:01:17.232Z,101638.84
2023-04-30T22:03:46.598Z,101636.47
2023-04-30T22:06:16.002Z,101636.66
2023-04-30T22:08:45.369Z,101640.38
2023-04-30T22:11:14.836Z,101629.69
2023-04-30T22:13:46.842Z,101628.06
2023-04-30T22:16:16.231Z,101625.63
2023-04-30T22:18:45.574Z,101620.56
2023-04-30T22:21:14.912Z,101618.56
2023-04-30T22:23:44.222Z,101618.69
2023-04-30T22:26:13.538Z,101609.06
2023-04-30T22:28:42.914Z,101616.56
2023-04-30T22:31:14.844Z,101606.25
2023-04-30T22:33:44.791Z,101610.94
2023-04-30T22:36:14.088Z,101610.34
2023-04-30T22:38:43.382Z,101605.66
2023-04-30T22:41:12.849Z,101597.91
2023-04-30T22:43:42.563Z,101597.56
2023-04-30T22:46:15.582Z,101604.59
2023-04-30T22:48:45.294Z,101604.59
2023-04-30T22:51:14.795Z,101594.75
2023-04-30T22:53:44.160Z,101594.41
2023-04-30T22:56:13.753Z,101596.75
2023-04-30T22:58:43.267Z,101592.75
2023-04-30T23:01:15.227Z,101588.41
2023-04-30T23:03:44.692Z,101590.28
2023-04-30T23:06:14.398Z,101585.59
2023-04-30T23:08:44.473Z,101590.06
2023-04-30T23:11:13.929Z,101583.03
2023-04-30T23:13:43.272Z,101583.94
2023-04-30T23:16:15.441Z,101579.38
2023-04-30T23:18:45.966Z,101584.75
2023-04-30T23:21:15.332Z,101584.75
2023-04-30T23:23:44.659Z,101580.75
2023-04-30T23:26:14.044Z,101574.56
2023-04-30T23:28:43.378Z,101573.41
2023-04-30T23:31:15.518Z,101580.88
2023-04-30T23:33:44.837Z,101578.78
2023-04-30T23:36:14.467Z,101577.13
2023-04-30T23:38:43.823Z,101572.78
2023-04-30T23:41:13.164Z,101571.34
2023-04-30T23:43:42.673Z,101566.91
2023-04-30T23:46:12.154Z,101570.81
2023-04-30T23:48:44.077Z,101568.59
2023-04-30T23:51:13.481Z,101573.16
2023-04-30T23:53:42.797Z,101573.38
2023-04-30T23:56:12.158Z,101565.91
2023-04-30T23:58:41.488Z,101573.38
